sensor_id;sensor_type;location;lat;lon;timestamp;P1;durP1;ratioP1;P2;durP2;ratioP2
15412;SDS011;7805;49.554;7.632;2022-10-17T00:00:42;10.63;;;5.13;;
15412;SDS011;7805;49.554;7.632;2022-10-17T00:03:08;12.93;;;4.30;;
15412;SDS011;7805;49.554;7.632;2022-10-17T00:05:39;5.90;;;4.40;;
15412;SDS011;7805;49.554;7.632;2022-10-17T00:08:05;7.33;;;5.37;;
15412;SDS011;7805;49.554;7.632;2022-10-17T00:10:31;9.57;;;5.37;;
15412;SDS011;7805;49.554;7.632;2022-10-17T00:12:56;10.73;;;5.30;;
15412;SDS011;7805;49.554;7.632;2022-10-17T00:15:22;9.93;;;4.90;;
15412;SDS011;7805;49.554;7.632;2022-10-17T00:17:48;12.63;;;4.80;;
15412;SDS011;7805;49.554;7.632;2022-10-17T00:20:14;10.83;;;4.93;;
15412;SDS011;7805;49.554;7.632;2022-10-17T00:22:40;21.37;;;5.73;;
15412;SDS011;7805;49.554;7.632;2022-10-17T00:25:05;14.00;;;5.57;;
15412;SDS011;7805;49.554;7.632;2022-10-17T00:27:35;14.27;;;4.97;;
15412;SDS011;7805;49.554;7.632;2022-10-17T00:30:02;14.93;;;5.40;;
15412;SDS011;7805;49.554;7.632;2022-10-17T00:32:29;15.10;;;5.50;;
15412;SDS011;7805;49.554;7.632;2022-10-17T00:34:54;7.07;;;5.00;;
15412;SDS011;7805;49.554;7.632;2022-10-17T00:37:21;11.23;;;4.83;;
15412;SDS011;7805;49.554;7.632;2022-10-17T00:39:46;10.50;;;5.27;;
15412;SDS011;7805;49.554;7.632;2022-10-17T00:42:12;10.13;;;5.03;;
15412;SDS011;7805;49.554;7.632;2022-10-17T00:47:08;7.90;;;4.00;;
15412;SDS011;7805;49.554;7.632;2022-10-17T00:49:37;6.67;;;4.20;;
15412;SDS011;7805;49.554;7.632;2022-10-17T00:52:05;11.73;;;4.50;;
15412;SDS011;7805;49.554;7.632;2022-10-17T00:54:39;18.53;;;7.47;;
15412;SDS011;7805;49.554;7.632;2022-10-17T00:57:09;51.97;;;7.60;;
15412;SDS011;7805;49.554;7.632;2022-10-17T00:59:37;8.70;;;5.10;;
15412;SDS011;7805;49.554;7.632;2022-10-17T01:04:32;84.13;;;8.00;;
15412;SDS011;7805;49.554;7.632;2022-10-17T01:06:59;10.97;;;4.97;;
15412;SDS011;7805;49.554;7.632;2022-10-17T01:09:25;8.77;;;4.70;;
15412;SDS011;7805;49.554;7.632;2022-10-17T01:11:54;9.73;;;4.30;;
15412;SDS011;7805;49.554;7.632;2022-10-17T01:14:47;10.70;;;3.90;;
15412;SDS011;7805;49.554;7.632;2022-10-17T01:29:14;7.97;;;4.70;;
15412;SDS011;7805;49.554;7.632;2022-10-17T01:31:51;7.90;;;5.00;;
15412;SDS011;7805;49.554;7.632;2022-10-17T01:34:38;13.10;;;5.47;;
15412;SDS011;7805;49.554;7.632;2022-10-17T01:37:18;6.90;;;5.67;;
15412;SDS011;7805;49.554;7.632;2022-10-17T01:40:18;26.93;;;9.60;;
15412;SDS011;7805;49.554;7.632;2022-10-17T01:47:52;10.97;;;6.77;;
15412;SDS011;7805;49.554;7.632;2022-10-17T01:50:36;11.83;;;6.70;;
15412;SDS011;7805;49.554;7.632;2022-10-17T01:53:08;16.53;;;6.83;;
15412;SDS011;7805;49.554;7.632;2022-10-17T01:55:40;14.70;;;8.27;;
15412;SDS011;7805;49.554;7.632;2022-10-17T01:58:09;10.67;;;7.03;;
15412;SDS011;7805;49.554;7.632;2022-10-17T02:00:44;15.30;;;7.33;;
15412;SDS011;7805;49.554;7.632;2022-10-17T02:03:13;11.67;;;5.97;;
15412;SDS011;7805;49.554;7.632;2022-10-17T02:05:42;8.53;;;5.03;;
15412;SDS011;7805;49.554;7.632;2022-10-17T02:08:09;5.97;;;4.80;;
15412;SDS011;7805;49.554;7.632;2022-10-17T02:13:03;10.47;;;5.80;;
15412;SDS011;7805;49.554;7.632;2022-10-17T02:15:45;8.00;;;4.93;;
15412;SDS011;7805;49.554;7.632;2022-10-17T02:29:01;11.50;;;6.03;;
15412;SDS011;7805;49.554;7.632;2022-10-17T02:31:50;10.33;;;5.40;;
15412;SDS011;7805;49.554;7.632;2022-10-17T02:34:31;7.53;;;4.83;;
15412;SDS011;7805;49.554;7.632;2022-10-17T02:36:59;7.07;;;4.30;;
15412;SDS011;7805;49.554;7.632;2022-10-17T02:39:29;7.57;;;4.00;;
15412;SDS011;7805;49.554;7.632;2022-10-17T02:41:56;14.43;;;7.40;;
15412;SDS011;7805;49.554;7.632;2022-10-17T02:44:26;19.47;;;9.27;;
15412;SDS011;7805;49.554;7.632;2022-10-17T02:46:54;13.40;;;7.80;;
15412;SDS011;7805;49.554;7.632;2022-10-17T02:49:28;17.73;;;10.30;;
15412;SDS011;7805;49.554;7.632;2022-10-17T02:54:42;22.27;;;9.93;;
15412;SDS011;7805;49.554;7.632;2022-10-17T03:00:03;15.13;;;8.40;;
15412;SDS011;7805;49.554;7.632;2022-10-17T03:03:16;18.63;;;13.80;;
15412;SDS011;7805;49.554;7.632;2022-10-17T03:05:24;23.07;;;13.33;;
15412;SDS011;7805;49.554;7.632;2022-10-17T03:07:52;20.23;;;11.43;;
15412;SDS011;7805;49.554;7.632;2022-10-17T03:10:18;14.53;;;10.20;;
15412;SDS011;7805;49.554;7.632;2022-10-17T03:12:44;18.90;;;14.30;;
15412;SDS011;7805;49.554;7.632;2022-10-17T03:15:10;13.13;;;9.50;;
15412;SDS011;7805;49.554;7.632;2022-10-17T03:17:36;15.03;;;9.10;;
15412;SDS011;7805;49.554;7.632;2022-10-17T03:20:02;11.20;;;8.97;;
15412;SDS011;7805;49.554;7.632;2022-10-17T03:22:28;17.77;;;9.60;;
15412;SDS011;7805;49.554;7.632;2022-10-17T03:24:54;13.27;;;9.17;;
15412;SDS011;7805;49.554;7.632;2022-10-17T03:27:20;20.33;;;9.53;;
15412;SDS011;7805;49.554;7.632;2022-10-17T03:29:45;17.20;;;10.47;;
15412;SDS011;7805;49.554;7.632;2022-10-17T03:32:11;12.67;;;7.47;;
15412;SDS011;7805;49.554;7.632;2022-10-17T03:34:36;18.30;;;8.63;;
15412;SDS011;7805;49.554;7.632;2022-10-17T03:37:02;14.00;;;8.43;;
15412;SDS011;7805;49.554;7.632;2022-10-17T03:39:28;15.10;;;9.30;;
15412;SDS011;7805;49.554;7.632;2022-10-17T03:41:53;13.90;;;7.87;;
15412;SDS011;7805;49.554;7.632;2022-10-17T03:44:19;19.67;;;9.07;;
15412;SDS011;7805;49.554;7.632;2022-10-17T03:46:44;11.57;;;7.00;;
15412;SDS011;7805;49.554;7.632;2022-10-17T03:49:10;11.93;;;7.03;;
15412;SDS011;7805;49.554;7.632;2022-10-17T03:51:35;8.93;;;5.87;;
15412;SDS011;7805;49.554;7.632;2022-10-17T03:54:01;10.27;;;4.70;;
15412;SDS011;7805;49.554;7.632;2022-10-17T03:56:27;10.97;;;5.20;;
15412;SDS011;7805;49.554;7.632;2022-10-17T03:58:53;11.40;;;5.83;;
15412;SDS011;7805;49.554;7.632;2022-10-17T04:01:19;6.97;;;5.53;;
15412;SDS011;7805;49.554;7.632;2022-10-17T04:03:49;8.13;;;5.07;;
15412;SDS011;7805;49.554;7.632;2022-10-17T04:06:15;7.67;;;5.77;;
15412;SDS011;7805;49.554;7.632;2022-10-17T04:08:41;14.47;;;6.07;;
15412;SDS011;7805;49.554;7.632;2022-10-17T04:11:07;7.77;;;5.60;;
15412;SDS011;7805;49.554;7.632;2022-10-17T04:13:34;6.53;;;5.03;;
15412;SDS011;7805;49.554;7.632;2022-10-17T04:16:04;6.47;;;4.97;;
15412;SDS011;7805;49.554;7.632;2022-10-17T04:18:32;5.77;;;5.00;;
15412;SDS011;7805;49.554;7.632;2022-10-17T04:21:01;9.27;;;5.53;;
15412;SDS011;7805;49.554;7.632;2022-10-17T04:23:28;6.90;;;4.90;;
15412;SDS011;7805;49.554;7.632;2022-10-17T04:25:57;4.70;;;3.53;;
15412;SDS011;7805;49.554;7.632;2022-10-17T04:28:24;12.93;;;4.47;;
15412;SDS011;7805;49.554;7.632;2022-10-17T04:31:00;10.03;;;4.67;;
15412;SDS011;7805;49.554;7.632;2022-10-17T04:33:27;8.60;;;3.60;;
15412;SDS011;7805;49.554;7.632;2022-10-17T04:35:56;8.20;;;4.23;;
15412;SDS011;7805;49.554;7.632;2022-10-17T04:38:21;8.80;;;4.20;;
15412;SDS011;7805;49.554;7.632;2022-10-17T04:40:47;7.53;;;4.50;;
15412;SDS011;7805;49.554;7.632;2022-10-17T04:43:12;9.80;;;3.93;;
15412;SDS011;7805;49.554;7.632;2022-10-17T04:45:38;5.53;;;3.67;;
15412;SDS011;7805;49.554;7.632;2022-10-17T04:48:03;6.03;;;4.43;;
15412;SDS011;7805;49.554;7.632;2022-10-17T04:50:29;5.53;;;4.60;;
15412;SDS011;7805;49.554;7.632;2022-10-17T04:52:55;10.97;;;5.30;;
15412;SDS011;7805;49.554;7.632;2022-10-17T04:55:20;8.90;;;5.63;;
15412;SDS011;7805;49.554;7.632;2022-10-17T04:57:46;6.43;;;3.63;;
15412;SDS011;7805;49.554;7.632;2022-10-17T05:00:12;11.60;;;4.43;;
15412;SDS011;7805;49.554;7.632;2022-10-17T05:02:37;6.80;;;4.70;;
15412;SDS011;7805;49.554;7.632;2022-10-17T05:05:03;9.27;;;4.30;;
15412;SDS011;7805;49.554;7.632;2022-10-17T05:07:29;9.17;;;5.00;;
15412;SDS011;7805;49.554;7.632;2022-10-17T05:09:55;7.63;;;3.27;;
15412;SDS011;7805;49.554;7.632;2022-10-17T05:12:22;17.17;;;4.63;;
15412;SDS011;7805;49.554;7.632;2022-10-17T05:14:48;6.97;;;4.63;;
15412;SDS011;7805;49.554;7.632;2022-10-17T05:17:13;7.30;;;5.80;;
15412;SDS011;7805;49.554;7.632;2022-10-17T05:19:39;14.30;;;4.70;;
15412;SDS011;7805;49.554;7.632;2022-10-17T05:22:05;9.43;;;4.93;;
15412;SDS011;7805;49.554;7.632;2022-10-17T05:24:30;7.07;;;5.80;;
15412;SDS011;7805;49.554;7.632;2022-10-17T05:26:56;10.87;;;5.20;;
15412;SDS011;7805;49.554;7.632;2022-10-17T05:29:22;9.27;;;5.90;;
15412;SDS011;7805;49.554;7.632;2022-10-17T05:31:47;9.30;;;7.33;;
15412;SDS011;7805;49.554;7.632;2022-10-17T05:34:13;7.83;;;7.07;;
15412;SDS011;7805;49.554;7.632;2022-10-17T05:36:38;14.07;;;7.53;;
15412;SDS011;7805;49.554;7.632;2022-10-17T05:39:04;10.63;;;7.40;;
15412;SDS011;7805;49.554;7.632;2022-10-17T05:41:30;9.23;;;6.33;;
15412;SDS011;7805;49.554;7.632;2022-10-17T05:43:55;10.30;;;6.20;;
15412;SDS011;7805;49.554;7.632;2022-10-17T05:46:21;11.97;;;6.23;;
15412;SDS011;7805;49.554;7.632;2022-10-17T05:48:46;6.83;;;4.97;;
15412;SDS011;7805;49.554;7.632;2022-10-17T05:51:12;9.13;;;5.40;;
15412;SDS011;7805;49.554;7.632;2022-10-17T05:53:39;31.73;;;28.77;;
15412;SDS011;7805;49.554;7.632;2022-10-17T05:56:07;13.17;;;10.63;;
15412;SDS011;7805;49.554;7.632;2022-10-17T05:58:34;14.23;;;9.13;;
15412;SDS011;7805;49.554;7.632;2022-10-17T06:01:00;13.53;;;7.40;;
15412;SDS011;7805;49.554;7.632;2022-10-17T06:03:28;9.30;;;7.13;;
15412;SDS011;7805;49.554;7.632;2022-10-17T06:05:54;10.33;;;7.13;;
15412;SDS011;7805;49.554;7.632;2022-10-17T06:08:20;13.97;;;8.60;;
15412;SDS011;7805;49.554;7.632;2022-10-17T06:10:46;17.57;;;9.23;;
15412;SDS011;7805;49.554;7.632;2022-10-17T06:13:13;13.40;;;9.20;;
15412;SDS011;7805;49.554;7.632;2022-10-17T06:15:40;11.43;;;8.90;;
15412;SDS011;7805;49.554;7.632;2022-10-17T06:18:05;14.90;;;7.70;;
15412;SDS011;7805;49.554;7.632;2022-10-17T06:20:31;10.03;;;6.70;;
15412;SDS011;7805;49.554;7.632;2022-10-17T06:22:56;9.83;;;5.27;;
15412;SDS011;7805;49.554;7.632;2022-10-17T06:25:22;5.27;;;4.77;;
15412;SDS011;7805;49.554;7.632;2022-10-17T06:27:47;6.37;;;4.67;;
15412;SDS011;7805;49.554;7.632;2022-10-17T06:30:13;8.43;;;5.03;;
15412;SDS011;7805;49.554;7.632;2022-10-17T06:32:39;7.50;;;4.93;;
15412;SDS011;7805;49.554;7.632;2022-10-17T06:35:04;6.23;;;4.90;;
15412;SDS011;7805;49.554;7.632;2022-10-17T06:37:31;5.10;;;4.30;;
15412;SDS011;7805;49.554;7.632;2022-10-17T06:39:57;6.93;;;4.67;;
15412;SDS011;7805;49.554;7.632;2022-10-17T06:42:23;11.43;;;5.83;;
15412;SDS011;7805;49.554;7.632;2022-10-17T06:44:49;7.07;;;4.53;;
15412;SDS011;7805;49.554;7.632;2022-10-17T06:47:15;7.53;;;5.20;;
15412;SDS011;7805;49.554;7.632;2022-10-17T06:49:40;11.97;;;6.10;;
15412;SDS011;7805;49.554;7.632;2022-10-17T06:52:06;12.70;;;7.50;;
15412;SDS011;7805;49.554;7.632;2022-10-17T06:54:31;12.57;;;8.27;;
15412;SDS011;7805;49.554;7.632;2022-10-17T06:56:57;13.20;;;7.43;;
15412;SDS011;7805;49.554;7.632;2022-10-17T06:59:22;10.37;;;9.27;;
15412;SDS011;7805;49.554;7.632;2022-10-17T07:01:48;11.60;;;9.20;;
15412;SDS011;7805;49.554;7.632;2022-10-17T07:04:14;14.57;;;8.33;;
15412;SDS011;7805;49.554;7.632;2022-10-17T07:06:39;12.53;;;6.87;;
15412;SDS011;7805;49.554;7.632;2022-10-17T07:09:05;8.67;;;6.47;;
15412;SDS011;7805;49.554;7.632;2022-10-17T07:11:31;10.77;;;9.13;;
15412;SDS011;7805;49.554;7.632;2022-10-17T07:13:58;17.33;;;10.50;;
15412;SDS011;7805;49.554;7.632;2022-10-17T07:16:24;10.80;;;7.43;;
15412;SDS011;7805;49.554;7.632;2022-10-17T07:18:49;7.50;;;6.70;;
15412;SDS011;7805;49.554;7.632;2022-10-17T07:21:15;10.20;;;5.87;;
15412;SDS011;7805;49.554;7.632;2022-10-17T07:23:42;7.33;;;5.60;;
15412;SDS011;7805;49.554;7.632;2022-10-17T07:26:09;10.67;;;5.33;;
15412;SDS011;7805;49.554;7.632;2022-10-17T07:28:36;14.40;;;8.17;;
15412;SDS011;7805;49.554;7.632;2022-10-17T07:31:07;8.77;;;6.90;;
15412;SDS011;7805;49.554;7.632;2022-10-17T07:33:34;8.43;;;6.50;;
15412;SDS011;7805;49.554;7.632;2022-10-17T07:36:00;14.87;;;8.60;;
15412;SDS011;7805;49.554;7.632;2022-10-17T07:38:29;12.53;;;7.70;;
15412;SDS011;7805;49.554;7.632;2022-10-17T07:40:55;9.60;;;6.17;;
15412;SDS011;7805;49.554;7.632;2022-10-17T07:43:23;7.03;;;5.43;;
15412;SDS011;7805;49.554;7.632;2022-10-17T07:45:49;7.47;;;5.10;;
15412;SDS011;7805;49.554;7.632;2022-10-17T07:48:15;5.30;;;4.67;;
15412;SDS011;7805;49.554;7.632;2022-10-17T07:50:41;8.33;;;5.60;;
15412;SDS011;7805;49.554;7.632;2022-10-17T07:53:06;10.97;;;5.33;;
15412;SDS011;7805;49.554;7.632;2022-10-17T07:55:32;13.57;;;7.37;;
15412;SDS011;7805;49.554;7.632;2022-10-17T07:57:58;14.10;;;9.40;;
15412;SDS011;7805;49.554;7.632;2022-10-17T08:00:24;12.03;;;7.93;;
15412;SDS011;7805;49.554;7.632;2022-10-17T08:02:50;11.30;;;8.10;;
15412;SDS011;7805;49.554;7.632;2022-10-17T08:05:16;11.60;;;6.63;;
15412;SDS011;7805;49.554;7.632;2022-10-17T08:07:42;8.70;;;5.37;;
15412;SDS011;7805;49.554;7.632;2022-10-17T08:10:09;6.97;;;4.65;;
15412;SDS011;7805;49.554;7.632;2022-10-17T08:12:36;9.45;;;3.65;;
15412;SDS011;7805;49.554;7.632;2022-10-17T08:15:02;5.57;;;3.95;;
15412;SDS011;7805;49.554;7.632;2022-10-17T08:17:29;4.78;;;2.50;;
15412;SDS011;7805;49.554;7.632;2022-10-17T08:19:54;4.80;;;3.63;;
15412;SDS011;7805;49.554;7.632;2022-10-17T08:22:20;7.75;;;3.70;;
15412;SDS011;7805;49.554;7.632;2022-10-17T08:24:45;3.95;;;2.75;;
15412;SDS011;7805;49.554;7.632;2022-10-17T08:27:11;5.55;;;2.70;;
15412;SDS011;7805;49.554;7.632;2022-10-17T08:29:40;7.65;;;3.10;;
15412;SDS011;7805;49.554;7.632;2022-10-17T08:32:06;6.25;;;3.03;;
15412;SDS011;7805;49.554;7.632;2022-10-17T08:34:33;3.13;;;2.60;;
15412;SDS011;7805;49.554;7.632;2022-10-17T08:36:59;4.45;;;2.97;;
15412;SDS011;7805;49.554;7.632;2022-10-17T08:39:24;6.50;;;3.25;;
15412;SDS011;7805;49.554;7.632;2022-10-17T08:47:26;4.00;;;3.08;;
15412;SDS011;7805;49.554;7.632;2022-10-17T08:50:09;8.85;;;2.80;;
15412;SDS011;7805;49.554;7.632;2022-10-17T08:55:17;3.78;;;2.63;;
15412;SDS011;7805;49.554;7.632;2022-10-17T08:57:57;2.67;;;2.10;;
15412;SDS011;7805;49.554;7.632;2022-10-17T09:00:22;6.82;;;2.20;;
15412;SDS011;7805;49.554;7.632;2022-10-17T09:02:58;7.90;;;2.22;;
15412;SDS011;7805;49.554;7.632;2022-10-17T09:05:48;2.92;;;2.42;;
15412;SDS011;7805;49.554;7.632;2022-10-17T09:18:00;4.47;;;2.60;;
15412;SDS011;7805;49.554;7.632;2022-10-17T09:22:46;3.30;;;2.35;;
15412;SDS011;7805;49.554;7.632;2022-10-17T09:25:23;2.30;;;1.88;;
15412;SDS011;7805;49.554;7.632;2022-10-17T09:28:05;2.50;;;1.88;;
15412;SDS011;7805;49.554;7.632;2022-10-17T09:30:42;5.43;;;2.72;;
15412;SDS011;7805;49.554;7.632;2022-10-17T09:33:17;6.82;;;3.45;;
15412;SDS011;7805;49.554;7.632;2022-10-17T09:35:45;5.95;;;2.83;;
15412;SDS011;7805;49.554;7.632;2022-10-17T09:38:16;2.58;;;1.90;;
15412;SDS011;7805;49.554;7.632;2022-10-17T09:40:50;6.35;;;3.53;;
15412;SDS011;7805;49.554;7.632;2022-10-17T09:43:20;5.80;;;2.70;;
15412;SDS011;7805;49.554;7.632;2022-10-17T09:48:30;4.30;;;2.97;;
15412;SDS011;7805;49.554;7.632;2022-10-17T09:51:02;9.40;;;5.35;;
15412;SDS011;7805;49.554;7.632;2022-10-17T09:53:32;4.18;;;2.67;;
15412;SDS011;7805;49.554;7.632;2022-10-17T09:56:04;6.30;;;2.30;;
15412;SDS011;7805;49.554;7.632;2022-10-17T09:58:43;4.15;;;2.85;;
15412;SDS011;7805;49.554;7.632;2022-10-17T10:01:19;2.80;;;2.33;;
15412;SDS011;7805;49.554;7.632;2022-10-17T10:06:38;4.95;;;4.07;;
15412;SDS011;7805;49.554;7.632;2022-10-17T10:09:05;4.35;;;2.95;;
15412;SDS011;7805;49.554;7.632;2022-10-17T10:14:19;2.47;;;2.10;;
15412;SDS011;7805;49.554;7.632;2022-10-17T10:16:46;4.70;;;3.05;;
15412;SDS011;7805;49.554;7.632;2022-10-17T10:21:58;7.55;;;3.92;;
15412;SDS011;7805;49.554;7.632;2022-10-17T10:24:24;4.65;;;2.50;;
15412;SDS011;7805;49.554;7.632;2022-10-17T10:26:51;4.50;;;3.35;;
15412;SDS011;7805;49.554;7.632;2022-10-17T10:32:19;5.13;;;2.13;;
15412;SDS011;7805;49.554;7.632;2022-10-17T10:34:50;7.43;;;4.50;;
15412;SDS011;7805;49.554;7.632;2022-10-17T10:40:00;6.50;;;4.32;;
15412;SDS011;7805;49.554;7.632;2022-10-17T10:42:29;6.38;;;2.50;;
15412;SDS011;7805;49.554;7.632;2022-10-17T10:45:02;3.45;;;2.92;;
15412;SDS011;7805;49.554;7.632;2022-10-17T10:48:00;5.78;;;2.75;;
15412;SDS011;7805;49.554;7.632;2022-10-17T10:55:54;6.63;;;2.15;;
15412;SDS011;7805;49.554;7.632;2022-10-17T11:00:52;3.42;;;2.13;;
15412;SDS011;7805;49.554;7.632;2022-10-17T11:03:22;5.32;;;2.35;;
15412;SDS011;7805;49.554;7.632;2022-10-17T11:05:55;6.43;;;3.13;;
15412;SDS011;7805;49.554;7.632;2022-10-17T11:08:37;6.50;;;2.72;;
15412;SDS011;7805;49.554;7.632;2022-10-17T11:14:00;16.42;;;4.35;;
15412;SDS011;7805;49.554;7.632;2022-10-17T11:19:24;7.95;;;2.97;;
15412;SDS011;7805;49.554;7.632;2022-10-17T11:22:15;9.10;;;3.88;;
15412;SDS011;7805;49.554;7.632;2022-10-17T11:25:05;11.90;;;5.25;;
15412;SDS011;7805;49.554;7.632;2022-10-17T11:27:43;6.25;;;2.95;;
15412;SDS011;7805;49.554;7.632;2022-10-17T11:30:11;11.52;;;2.75;;
15412;SDS011;7805;49.554;7.632;2022-10-17T11:32:47;9.00;;;3.22;;
15412;SDS011;7805;49.554;7.632;2022-10-17T11:40:46;6.10;;;2.72;;
15412;SDS011;7805;49.554;7.632;2022-10-17T11:46:06;5.85;;;2.85;;
15412;SDS011;7805;49.554;7.632;2022-10-17T11:49:05;4.50;;;2.75;;
15412;SDS011;7805;49.554;7.632;2022-10-17T11:51:35;7.20;;;3.33;;
15412;SDS011;7805;49.554;7.632;2022-10-17T11:56:47;11.18;;;4.63;;
15412;SDS011;7805;49.554;7.632;2022-10-17T11:59:51;12.90;;;5.18;;
15412;SDS011;7805;49.554;7.632;2022-10-17T12:02:28;7.53;;;3.42;;
15412;SDS011;7805;49.554;7.632;2022-10-17T12:05:18;13.25;;;3.85;;
15412;SDS011;7805;49.554;7.632;2022-10-17T12:07:53;13.55;;;3.08;;
15412;SDS011;7805;49.554;7.632;2022-10-17T12:10:49;5.35;;;2.53;;
15412;SDS011;7805;49.554;7.632;2022-10-17T12:15:54;7.28;;;2.90;;
15412;SDS011;7805;49.554;7.632;2022-10-17T12:18:24;6.85;;;4.03;;
15412;SDS011;7805;49.554;7.632;2022-10-17T12:20:56;9.73;;;4.75;;
15412;SDS011;7805;49.554;7.632;2022-10-17T12:23:27;3.17;;;2.22;;
15412;SDS011;7805;49.554;7.632;2022-10-17T12:25:57;9.43;;;7.30;;
15412;SDS011;7805;49.554;7.632;2022-10-17T12:33:58;6.93;;;3.55;;
15412;SDS011;7805;49.554;7.632;2022-10-17T12:54:45;3.13;;;2.00;;
15412;SDS011;7805;49.554;7.632;2022-10-17T12:57:40;4.90;;;2.22;;
15412;SDS011;7805;49.554;7.632;2022-10-17T13:00:30;7.65;;;2.10;;
15412;SDS011;7805;49.554;7.632;2022-10-17T13:03:05;8.68;;;2.20;;
15412;SDS011;7805;49.554;7.632;2022-10-17T13:05:37;6.65;;;2.38;;
15412;SDS011;7805;49.554;7.632;2022-10-17T13:08:06;6.80;;;2.85;;
15412;SDS011;7805;49.554;7.632;2022-10-17T13:10:44;3.28;;;2.05;;
15412;SDS011;7805;49.554;7.632;2022-10-17T13:13:14;9.10;;;2.47;;
15412;SDS011;7805;49.554;7.632;2022-10-17T13:15:48;4.20;;;2.85;;
15412;SDS011;7805;49.554;7.632;2022-10-17T13:18:22;6.38;;;3.25;;
15412;SDS011;7805;49.554;7.632;2022-10-17T13:23:38;7.60;;;2.53;;
15412;SDS011;7805;49.554;7.632;2022-10-17T13:29:03;5.22;;;2.17;;
15412;SDS011;7805;49.554;7.632;2022-10-17T13:31:32;2.47;;;1.80;;
15412;SDS011;7805;49.554;7.632;2022-10-17T13:34:01;4.95;;;2.08;;
15412;SDS011;7805;49.554;7.632;2022-10-17T13:36:29;4.72;;;2.60;;
15412;SDS011;7805;49.554;7.632;2022-10-17T13:38:59;6.70;;;3.10;;
15412;SDS011;7805;49.554;7.632;2022-10-17T13:41:30;6.15;;;2.42;;
15412;SDS011;7805;49.554;7.632;2022-10-17T13:43:59;4.43;;;2.17;;
15412;SDS011;7805;49.554;7.632;2022-10-17T13:46:30;4.35;;;2.20;;
15412;SDS011;7805;49.554;7.632;2022-10-17T13:48:58;4.50;;;2.42;;
15412;SDS011;7805;49.554;7.632;2022-10-17T13:51:32;6.25;;;2.40;;
15412;SDS011;7805;49.554;7.632;2022-10-17T13:53:58;3.35;;;2.20;;
15412;SDS011;7805;49.554;7.632;2022-10-17T13:56:24;5.30;;;2.50;;
15412;SDS011;7805;49.554;7.632;2022-10-17T13:58:59;6.68;;;2.65;;
15412;SDS011;7805;49.554;7.632;2022-10-17T14:01:31;5.68;;;2.28;;
15412;SDS011;7805;49.554;7.632;2022-10-17T14:03:57;7.07;;;2.80;;
15412;SDS011;7805;49.554;7.632;2022-10-17T14:06:23;3.85;;;2.28;;
15412;SDS011;7805;49.554;7.632;2022-10-17T14:08:57;5.55;;;2.50;;
15412;SDS011;7805;49.554;7.632;2022-10-17T14:13:54;4.15;;;2.00;;
15412;SDS011;7805;49.554;7.632;2022-10-17T14:16:22;6.13;;;2.55;;
15412;SDS011;7805;49.554;7.632;2022-10-17T14:18:49;4.18;;;2.35;;
15412;SDS011;7805;49.554;7.632;2022-10-17T14:21:17;6.43;;;2.67;;
15412;SDS011;7805;49.554;7.632;2022-10-17T14:23:45;5.75;;;2.60;;
15412;SDS011;7805;49.554;7.632;2022-10-17T14:26:12;6.60;;;2.75;;
15412;SDS011;7805;49.554;7.632;2022-10-17T14:28:39;4.88;;;2.95;;
15412;SDS011;7805;49.554;7.632;2022-10-17T14:33:34;5.85;;;2.42;;
15412;SDS011;7805;49.554;7.632;2022-10-17T14:36:01;9.00;;;3.22;;
15412;SDS011;7805;49.554;7.632;2022-10-17T14:38:29;6.38;;;2.40;;
15412;SDS011;7805;49.554;7.632;2022-10-17T14:40:57;4.65;;;2.40;;
15412;SDS011;7805;49.554;7.632;2022-10-17T14:43:30;5.90;;;2.45;;
15412;SDS011;7805;49.554;7.632;2022-10-17T14:45:56;4.85;;;2.55;;
15412;SDS011;7805;49.554;7.632;2022-10-17T14:48:27;7.57;;;2.30;;
